sensor_id;sensor_type;location;lat;lon;timestamp;temperature;humidity
19090;DHT22;9677;50.656;13.064;2022-07-19T00:00:19;23.30;33.90
19090;DHT22;9677;50.656;13.064;2022-07-19T00:02:48;23.20;33.90
19090;DHT22;9677;50.656;13.064;2022-07-19T00:05:18;23.10;34.00
19090;DHT22;9677;50.656;13.064;2022-07-19T00:07:47;23.10;34.00
19090;DHT22;9677;50.656;13.064;2022-07-19T00:10:18;23.10;34.10
19090;DHT22;9677;50.656;13.064;2022-07-19T00:12:47;23.00;34.20
19090;DHT22;9677;50.656;13.064;2022-07-19T00:15:16;23.00;34.20
19090;DHT22;9677;50.656;13.064;2022-07-19T00:17:47;23.00;34.30
19090;DHT22;9677;50.656;13.064;2022-07-19T00:20:19;22.90;34.40
19090;DHT22;9677;50.656;13.064;2022-07-19T00:22:49;22.70;34.50
19090;DHT22;9677;50.656;13.064;2022-07-19T00:25:19;22.80;34.50
19090;DHT22;9677;50.656;13.064;2022-07-19T00:27:48;22.70;34.60
19090;DHT22;9677;50.656;13.064;2022-07-19T00:30:16;22.70;34.60
19090;DHT22;9677;50.656;13.064;2022-07-19T00:32:45;22.60;34.70
19090;DHT22;9677;50.656;13.064;2022-07-19T00:35:13;22.60;34.80
19090;DHT22;9677;50.656;13.064;2022-07-19T00:37:42;22.60;34.90
19090;DHT22;9677;50.656;13.064;2022-07-19T00:40:15;22.60;34.90
19090;DHT22;9677;50.656;13.064;2022-07-19T00:42:50;22.50;35.00
19090;DHT22;9677;50.656;13.064;2022-07-19T00:45:19;22.40;35.00
19090;DHT22;9677;50.656;13.064;2022-07-19T00:47:48;22.50;35.20
19090;DHT22;9677;50.656;13.064;2022-07-19T00:50:17;22.40;35.10
19090;DHT22;9677;50.656;13.064;2022-07-19T00:52:46;22.40;35.10
19090;DHT22;9677;50.656;13.064;2022-07-19T00:55:18;22.40;35.30
19090;DHT22;9677;50.656;13.064;2022-07-19T00:57:48;22.40;35.30
19090;DHT22;9677;50.656;13.064;2022-07-19T01:00:17;22.40;35.40
19090;DHT22;9677;50.656;13.064;2022-07-19T01:02:46;22.30;35.40
19090;DHT22;9677;50.656;13.064;2022-07-19T01:05:15;22.30;35.50
19090;DHT22;9677;50.656;13.064;2022-07-19T01:07:44;22.20;35.40
19090;DHT22;9677;50.656;13.064;2022-07-19T01:10:14;22.10;35.40
19090;DHT22;9677;50.656;13.064;2022-07-19T01:12:44;22.10;35.50
19090;DHT22;9677;50.656;13.064;2022-07-19T01:15:15;22.10;35.50
19090;DHT22;9677;50.656;13.064;2022-07-19T01:17:46;22.00;35.70
19090;DHT22;9677;50.656;13.064;2022-07-19T01:20:15;22.00;35.60
19090;DHT22;9677;50.656;13.064;2022-07-19T01:22:46;22.00;35.70
19090;DHT22;9677;50.656;13.064;2022-07-19T01:25:17;22.00;35.80
19090;DHT22;9677;50.656;13.064;2022-07-19T01:27:47;22.00;35.80
19090;DHT22;9677;50.656;13.064;2022-07-19T01:30:19;21.90;35.90
19090;DHT22;9677;50.656;13.064;2022-07-19T01:32:49;21.90;36.00
19090;DHT22;9677;50.656;13.064;2022-07-19T01:35:18;21.80;35.90
19090;DHT22;9677;50.656;13.064;2022-07-19T01:37:49;21.80;35.90
19090;DHT22;9677;50.656;13.064;2022-07-19T01:40:18;22.00;36.20
19090;DHT22;9677;50.656;13.064;2022-07-19T01:42:47;21.70;36.00
19090;DHT22;9677;50.656;13.064;2022-07-19T01:45:17;21.90;36.20
19090;DHT22;9677;50.656;13.064;2022-07-19T01:47:46;21.90;36.40
19090;DHT22;9677;50.656;13.064;2022-07-19T01:50:16;21.60;36.20
19090;DHT22;9677;50.656;13.064;2022-07-19T01:52:45;21.60;36.30
19090;DHT22;9677;50.656;13.064;2022-07-19T01:55:19;21.50;36.30
19090;DHT22;9677;50.656;13.064;2022-07-19T01:57:48;21.60;36.50
19090;DHT22;9677;50.656;13.064;2022-07-19T02:00:17;21.50;36.40
19090;DHT22;9677;50.656;13.064;2022-07-19T02:02:45;21.40;36.40
19090;DHT22;9677;50.656;13.064;2022-07-19T02:05:14;21.40;36.50
19090;DHT22;9677;50.656;13.064;2022-07-19T02:07:46;21.30;36.50
19090;DHT22;9677;50.656;13.064;2022-07-19T02:10:15;21.30;36.60
19090;DHT22;9677;50.656;13.064;2022-07-19T02:12:46;21.30;36.80
19090;DHT22;9677;50.656;13.064;2022-07-19T02:15:14;21.20;36.70
19090;DHT22;9677;50.656;13.064;2022-07-19T02:17:43;21.20;36.80
19090;DHT22;9677;50.656;13.064;2022-07-19T02:20:11;21.20;36.90
19090;DHT22;9677;50.656;13.064;2022-07-19T02:22:41;21.20;37.00
19090;DHT22;9677;50.656;13.064;2022-07-19T02:25:10;21.10;37.00
19090;DHT22;9677;50.656;13.064;2022-07-19T02:27:41;21.10;37.10
19090;DHT22;9677;50.656;13.064;2022-07-19T02:30:11;21.00;37.10
19090;DHT22;9677;50.656;13.064;2022-07-19T02:32:40;21.00;37.10
19090;DHT22;9677;50.656;13.064;2022-07-19T02:35:10;21.00;37.20
19090;DHT22;9677;50.656;13.064;2022-07-19T02:37:40;20.90;37.30
19090;DHT22;9677;50.656;13.064;2022-07-19T02:40:09;20.90;37.90
19090;DHT22;9677;50.656;13.064;2022-07-19T02:42:38;20.90;37.30
19090;DHT22;9677;50.656;13.064;2022-07-19T02:45:08;20.90;37.30
19090;DHT22;9677;50.656;13.064;2022-07-19T02:47:38;20.80;37.40
19090;DHT22;9677;50.656;13.064;2022-07-19T02:50:07;20.80;37.40
19090;DHT22;9677;50.656;13.064;2022-07-19T02:52:36;20.80;37.50
19090;DHT22;9677;50.656;13.064;2022-07-19T02:55:05;20.80;37.50
19090;DHT22;9677;50.656;13.064;2022-07-19T02:57:34;20.70;37.50
19090;DHT22;9677;50.656;13.064;2022-07-19T03:00:04;20.70;37.50
19090;DHT22;9677;50.656;13.064;2022-07-19T03:02:36;20.70;37.70
19090;DHT22;9677;50.656;13.064;2022-07-19T03:05:05;20.70;37.80
19090;DHT22;9677;50.656;13.064;2022-07-19T03:07:34;20.60;37.80
19090;DHT22;9677;50.656;13.064;2022-07-19T03:10:04;20.50;37.70
19090;DHT22;9677;50.656;13.064;2022-07-19T03:12:33;20.50;37.80
19090;DHT22;9677;50.656;13.064;2022-07-19T03:15:03;20.50;37.90
19090;DHT22;9677;50.656;13.064;2022-07-19T03:17:32;20.50;38.00
19090;DHT22;9677;50.656;13.064;2022-07-19T03:20:02;20.50;38.00
19090;DHT22;9677;50.656;13.064;2022-07-19T03:22:31;20.40;38.10
19090;DHT22;9677;50.656;13.064;2022-07-19T03:24:59;20.40;38.10
19090;DHT22;9677;50.656;13.064;2022-07-19T03:27:28;20.30;38.10
19090;DHT22;9677;50.656;13.064;2022-07-19T03:29:56;20.30;38.10
19090;DHT22;9677;50.656;13.064;2022-07-19T03:32:24;20.30;38.20
19090;DHT22;9677;50.656;13.064;2022-07-19T03:34:53;20.30;38.40
19090;DHT22;9677;50.656;13.064;2022-07-19T03:37:23;20.10;38.40
19090;DHT22;9677;50.656;13.064;2022-07-19T03:39:52;20.20;38.60
19090;DHT22;9677;50.656;13.064;2022-07-19T03:42:20;20.10;38.50
19090;DHT22;9677;50.656;13.064;2022-07-19T03:44:48;20.10;39.30
19090;DHT22;9677;50.656;13.064;2022-07-19T03:47:17;20.00;38.70
19090;DHT22;9677;50.656;13.064;2022-07-19T03:49:45;20.00;39.30
19090;DHT22;9677;50.656;13.064;2022-07-19T03:52:13;20.00;38.80
19090;DHT22;9677;50.656;13.064;2022-07-19T03:54:46;19.90;38.90
19090;DHT22;9677;50.656;13.064;2022-07-19T03:57:16;19.90;39.00
19090;DHT22;9677;50.656;13.064;2022-07-19T03:59:45;19.90;38.90
19090;DHT22;9677;50.656;13.064;2022-07-19T04:02:13;19.90;39.10
19090;DHT22;9677;50.656;13.064;2022-07-19T04:04:42;19.80;39.10
19090;DHT22;9677;50.656;13.064;2022-07-19T04:07:10;19.80;39.20
19090;DHT22;9677;50.656;13.064;2022-07-19T04:09:38;19.80;39.30
19090;DHT22;9677;50.656;13.064;2022-07-19T04:12:08;19.70;39.40
19090;DHT22;9677;50.656;13.064;2022-07-19T04:14:37;19.70;39.50
19090;DHT22;9677;50.656;13.064;2022-07-19T04:17:06;19.70;39.40
19090;DHT22;9677;50.656;13.064;2022-07-19T04:19:34;19.70;39.50
19090;DHT22;9677;50.656;13.064;2022-07-19T04:22:03;19.60;39.50
19090;DHT22;9677;50.656;13.064;2022-07-19T04:24:31;19.60;39.60
19090;DHT22;9677;50.656;13.064;2022-07-19T04:27:00;19.60;40.30
19090;DHT22;9677;50.656;13.064;2022-07-19T04:29:29;19.60;39.80
19090;DHT22;9677;50.656;13.064;2022-07-19T04:31:58;19.60;39.90
19090;DHT22;9677;50.656;13.064;2022-07-19T04:34:26;19.60;39.90
19090;DHT22;9677;50.656;13.064;2022-07-19T04:37:15;19.60;40.00
19090;DHT22;9677;50.656;13.064;2022-07-19T04:39:43;19.60;40.00
19090;DHT22;9677;50.656;13.064;2022-07-19T04:42:12;19.50;40.10
19090;DHT22;9677;50.656;13.064;2022-07-19T04:44:42;19.60;40.20
19090;DHT22;9677;50.656;13.064;2022-07-19T04:47:10;19.50;40.20
19090;DHT22;9677;50.656;13.064;2022-07-19T04:49:38;19.50;40.20
19090;DHT22;9677;50.656;13.064;2022-07-19T04:52:07;19.50;40.20
19090;DHT22;9677;50.656;13.064;2022-07-19T04:54:35;19.50;40.30
19090;DHT22;9677;50.656;13.064;2022-07-19T04:57:04;19.50;40.40
19090;DHT22;9677;50.656;13.064;2022-07-19T04:59:32;19.50;40.40
19090;DHT22;9677;50.656;13.064;2022-07-19T05:02:02;19.50;40.50
19090;DHT22;9677;50.656;13.064;2022-07-19T05:04:30;19.50;40.60
19090;DHT22;9677;50.656;13.064;2022-07-19T05:06:59;19.50;40.60
19090;DHT22;9677;50.656;13.064;2022-07-19T05:09:28;19.50;40.60
19090;DHT22;9677;50.656;13.064;2022-07-19T05:11:57;19.50;40.70
19090;DHT22;9677;50.656;13.064;2022-07-19T05:14:25;19.50;40.70
19090;DHT22;9677;50.656;13.064;2022-07-19T05:16:54;19.50;40.80
19090;DHT22;9677;50.656;13.064;2022-07-19T05:19:23;19.60;40.90
19090;DHT22;9677;50.656;13.064;2022-07-19T05:21:52;19.80;41.00
19090;DHT22;9677;50.656;13.064;2022-07-19T05:24:20;19.60;40.90
19090;DHT22;9677;50.656;13.064;2022-07-19T05:26:48;19.60;41.00
19090;DHT22;9677;50.656;13.064;2022-07-19T05:29:17;19.60;41.10
19090;DHT22;9677;50.656;13.064;2022-07-19T05:31:45;19.70;41.80
19090;DHT22;9677;50.656;13.064;2022-07-19T05:34:14;19.70;41.20
19090;DHT22;9677;50.656;13.064;2022-07-19T05:36:44;19.70;41.30
19090;DHT22;9677;50.656;13.064;2022-07-19T05:39:12;19.70;41.40
19090;DHT22;9677;50.656;13.064;2022-07-19T05:41:41;19.80;41.40
19090;DHT22;9677;50.656;13.064;2022-07-19T05:44:11;19.80;41.50
19090;DHT22;9677;50.656;13.064;2022-07-19T05:46:40;19.90;41.60
19090;DHT22;9677;50.656;13.064;2022-07-19T05:49:10;19.90;41.60
19090;DHT22;9677;50.656;13.064;2022-07-19T05:51:38;20.00;41.60
19090;DHT22;9677;50.656;13.064;2022-07-19T05:54:08;20.00;41.70
19090;DHT22;9677;50.656;13.064;2022-07-19T05:56:36;20.00;41.90
19090;DHT22;9677;50.656;13.064;2022-07-19T05:59:05;20.00;41.70
19090;DHT22;9677;50.656;13.064;2022-07-19T06:01:33;20.10;41.90
19090;DHT22;9677;50.656;13.064;2022-07-19T06:04:02;20.20;41.90
19090;DHT22;9677;50.656;13.064;2022-07-19T06:06:32;20.20;42.00
19090;DHT22;9677;50.656;13.064;2022-07-19T06:09:03;20.30;42.10
19090;DHT22;9677;50.656;13.064;2022-07-19T06:11:33;20.30;42.10
19090;DHT22;9677;50.656;13.064;2022-07-19T06:14:02;20.40;42.20
19090;DHT22;9677;50.656;13.064;2022-07-19T06:16:33;20.50;42.20
19090;DHT22;9677;50.656;13.064;2022-07-19T06:19:02;20.50;42.20
19090;DHT22;9677;50.656;13.064;2022-07-19T06:21:31;20.60;42.20
19090;DHT22;9677;50.656;13.064;2022-07-19T06:24:00;20.60;42.20
19090;DHT22;9677;50.656;13.064;2022-07-19T06:26:28;20.70;42.30
19090;DHT22;9677;50.656;13.064;2022-07-19T06:28:58;20.70;42.30
19090;DHT22;9677;50.656;13.064;2022-07-19T06:31:27;20.80;42.50
19090;DHT22;9677;50.656;13.064;2022-07-19T06:33:55;20.90;42.50
19090;DHT22;9677;50.656;13.064;2022-07-19T06:36:23;21.00;42.50
19090;DHT22;9677;50.656;13.064;2022-07-19T06:39:12;21.10;42.50
19090;DHT22;9677;50.656;13.064;2022-07-19T06:41:40;21.20;42.50
19090;DHT22;9677;50.656;13.064;2022-07-19T06:44:18;21.30;42.60
19090;DHT22;9677;50.656;13.064;2022-07-19T06:46:47;21.30;42.60
19090;DHT22;9677;50.656;13.064;2022-07-19T06:49:21;21.40;42.60
19090;DHT22;9677;50.656;13.064;2022-07-19T06:51:49;21.50;42.60
19090;DHT22;9677;50.656;13.064;2022-07-19T06:54:18;21.60;42.70
19090;DHT22;9677;50.656;13.064;2022-07-19T06:56:46;21.70;42.70
19090;DHT22;9677;50.656;13.064;2022-07-19T06:59:15;21.80;42.70
19090;DHT22;9677;50.656;13.064;2022-07-19T07:01:44;21.90;42.80
19090;DHT22;9677;50.656;13.064;2022-07-19T07:04:13;22.00;42.80
19090;DHT22;9677;50.656;13.064;2022-07-19T07:06:47;22.10;42.70
19090;DHT22;9677;50.656;13.064;2022-07-19T07:09:16;22.40;42.80
19090;DHT22;9677;50.656;13.064;2022-07-19T07:11:44;22.30;42.70
19090;DHT22;9677;50.656;13.064;2022-07-19T07:14:12;22.40;42.70
19090;DHT22;9677;50.656;13.064;2022-07-19T07:16:41;22.70;42.70
19090;DHT22;9677;50.656;13.064;2022-07-19T07:19:11;22.80;42.70
19090;DHT22;9677;50.656;13.064;2022-07-19T07:21:39;22.80;42.60
19090;DHT22;9677;50.656;13.064;2022-07-19T07:24:08;23.00;42.50
19090;DHT22;9677;50.656;13.064;2022-07-19T07:26:36;23.00;42.40
19090;DHT22;9677;50.656;13.064;2022-07-19T07:29:04;23.10;42.30
19090;DHT22;9677;50.656;13.064;2022-07-19T07:31:33;23.40;42.40
19090;DHT22;9677;50.656;13.064;2022-07-19T07:34:02;23.50;42.30
19090;DHT22;9677;50.656;13.064;2022-07-19T07:36:32;23.50;42.20
19090;DHT22;9677;50.656;13.064;2022-07-19T07:39:21;23.60;42.20
19090;DHT22;9677;50.656;13.064;2022-07-19T07:41:50;23.80;42.20
19090;DHT22;9677;50.656;13.064;2022-07-19T07:44:30;23.90;42.20
19090;DHT22;9677;50.656;13.064;2022-07-19T07:46:59;24.10;42.10
19090;DHT22;9677;50.656;13.064;2022-07-19T07:49:27;24.30;42.20
19090;DHT22;9677;50.656;13.064;2022-07-19T07:51:58;24.50;42.20
19090;DHT22;9677;50.656;13.064;2022-07-19T07:54:26;24.70;42.10
19090;DHT22;9677;50.656;13.064;2022-07-19T07:56:55;24.90;42.00
19090;DHT22;9677;50.656;13.064;2022-07-19T07:59:23;25.10;41.80
19090;DHT22;9677;50.656;13.064;2022-07-19T08:01:52;25.40;41.80
19090;DHT22;9677;50.656;13.064;2022-07-19T08:04:25;25.60;41.50
19090;DHT22;9677;50.656;13.064;2022-07-19T08:06:54;25.90;41.30
19090;DHT22;9677;50.656;13.064;2022-07-19T08:09:24;26.10;41.10
19090;DHT22;9677;50.656;13.064;2022-07-19T08:11:52;26.40;40.90
19090;DHT22;9677;50.656;13.064;2022-07-19T08:14:21;26.70;40.80
19090;DHT22;9677;50.656;13.064;2022-07-19T08:16:49;26.90;40.20
19090;DHT22;9677;50.656;13.064;2022-07-19T08:19:17;27.20;40.00
19090;DHT22;9677;50.656;13.064;2022-07-19T08:21:46;27.50;39.70
19090;DHT22;9677;50.656;13.064;2022-07-19T08:24:14;27.80;39.20
19090;DHT22;9677;50.656;13.064;2022-07-19T08:26:44;28.10;39.00
19090;DHT22;9677;50.656;13.064;2022-07-19T08:29:12;28.40;38.70
19090;DHT22;9677;50.656;13.064;2022-07-19T08:31:41;28.70;38.40
19090;DHT22;9677;50.656;13.064;2022-07-19T08:34:09;28.90;37.90
19090;DHT22;9677;50.656;13.064;2022-07-19T08:36:37;29.20;37.70
19090;DHT22;9677;50.656;13.064;2022-07-19T08:39:06;29.50;37.60
19090;DHT22;9677;50.656;13.064;2022-07-19T08:41:34;29.70;37.30
19090;DHT22;9677;50.656;13.064;2022-07-19T08:44:05;30.00;36.80
19090;DHT22;9677;50.656;13.064;2022-07-19T08:46:33;30.20;36.70
19090;DHT22;9677;50.656;13.064;2022-07-19T08:49:03;30.50;36.70
19090;DHT22;9677;50.656;13.064;2022-07-19T08:51:32;30.70;36.20
19090;DHT22;9677;50.656;13.064;2022-07-19T08:54:02;31.00;35.40
19090;DHT22;9677;50.656;13.064;2022-07-19T08:56:30;31.20;35.60
19090;DHT22;9677;50.656;13.064;2022-07-19T08:59:18;31.40;35.50
19090;DHT22;9677;50.656;13.064;2022-07-19T09:01:46;31.70;35.20
19090;DHT22;9677;50.656;13.064;2022-07-19T09:04:17;32.00;34.90
19090;DHT22;9677;50.656;13.064;2022-07-19T09:06:48;32.20;34.60
19090;DHT22;9677;50.656;13.064;2022-07-19T09:09:19;32.40;34.20
19090;DHT22;9677;50.656;13.064;2022-07-19T09:11:49;32.60;34.10
19090;DHT22;9677;50.656;13.064;2022-07-19T09:14:22;32.90;33.90
19090;DHT22;9677;50.656;13.064;2022-07-19T09:16:57;33.10;33.30
19090;DHT22;9677;50.656;13.064;2022-07-19T09:19:33;33.20;32.80
19090;DHT22;9677;50.656;13.064;2022-07-19T09:22:04;33.40;32.70
19090;DHT22;9677;50.656;13.064;2022-07-19T09:24:35;33.60;32.30
19090;DHT22;9677;50.656;13.064;2022-07-19T09:27:05;33.80;32.10
19090;DHT22;9677;50.656;13.064;2022-07-19T09:29:37;33.90;32.00
19090;DHT22;9677;50.656;13.064;2022-07-19T09:32:08;34.10;31.60
19090;DHT22;9677;50.656;13.064;2022-07-19T09:34:39;34.20;32.00
19090;DHT22;9677;50.656;13.064;2022-07-19T09:37:17;34.40;31.90
19090;DHT22;9677;50.656;13.064;2022-07-19T09:39:48;34.60;31.00
19090;DHT22;9677;50.656;13.064;2022-07-19T09:42:21;34.70;31.70
19090;DHT22;9677;50.656;13.064;2022-07-19T09:44:58;34.90;31.20
19090;DHT22;9677;50.656;13.064;2022-07-19T09:47:32;35.00;30.00
19090;DHT22;9677;50.656;13.064;2022-07-19T09:50:02;35.20;30.80
19090;DHT22;9677;50.656;13.064;2022-07-19T09:52:34;35.20;30.80
19090;DHT22;9677;50.656;13.064;2022-07-19T09:55:12;35.40;30.50
19090;DHT22;9677;50.656;13.064;2022-07-19T09:57:43;35.50;30.60
19090;DHT22;9677;50.656;13.064;2022-07-19T10:00:15;35.60;30.30
19090;DHT22;9677;50.656;13.064;2022-07-19T10:02:48;35.80;29.90
19090;DHT22;9677;50.656;13.064;2022-07-19T10:05:18;35.90;30.00
19090;DHT22;9677;50.656;13.064;2022-07-19T10:07:47;36.00;29.80
19090;DHT22;9677;50.656;13.064;2022-07-19T10:10:18;36.10;29.60
19090;DHT22;9677;50.656;13.064;2022-07-19T10:12:48;36.30;29.20
19090;DHT22;9677;50.656;13.064;2022-07-19T10:15:20;36.40;29.20
19090;DHT22;9677;50.656;13.064;2022-07-19T10:18:03;36.50;29.00
19090;DHT22;9677;50.656;13.064;2022-07-19T10:20:38;36.70;27.90
19090;DHT22;9677;50.656;13.064;2022-07-19T10:23:07;36.80;28.70
19090;DHT22;9677;50.656;13.064;2022-07-19T10:25:39;37.00;28.80
19090;DHT22;9677;50.656;13.064;2022-07-19T10:28:28;37.10;28.50
19090;DHT22;9677;50.656;13.064;2022-07-19T10:31:26;37.30;28.20
19090;DHT22;9677;50.656;13.064;2022-07-19T10:34:00;37.50;28.00
19090;DHT22;9677;50.656;13.064;2022-07-19T10:36:48;37.70;28.50
19090;DHT22;9677;50.656;13.064;2022-07-19T10:39:26;37.90;27.80
19090;DHT22;9677;50.656;13.064;2022-07-19T10:42:14;38.10;28.00
19090;DHT22;9677;50.656;13.064;2022-07-19T10:45:10;38.30;27.90
19090;DHT22;9677;50.656;13.064;2022-07-19T10:48:04;38.50;27.30
19090;DHT22;9677;50.656;13.064;2022-07-19T10:50:50;38.70;27.70
19090;DHT22;9677;50.656;13.064;2022-07-19T10:53:54;38.90;27.00
19090;DHT22;9677;50.656;13.064;2022-07-19T10:56:34;39.10;27.10
19090;DHT22;9677;50.656;13.064;2022-07-19T10:59:31;39.40;27.10
19090;DHT22;9677;50.656;13.064;2022-07-19T11:02:05;39.50;26.30
19090;DHT22;9677;50.656;13.064;2022-07-19T11:04:55;39.70;27.10
19090;DHT22;9677;50.656;13.064;2022-07-19T11:07:24;39.80;27.00
19090;DHT22;9677;50.656;13.064;2022-07-19T11:09:55;40.00;26.80
19090;DHT22;9677;50.656;13.064;2022-07-19T11:12:34;40.10;26.40
19090;DHT22;9677;50.656;13.064;2022-07-19T11:15:06;40.30;26.20
19090;DHT22;9677;50.656;13.064;2022-07-19T11:17:54;40.40;26.00
19090;DHT22;9677;50.656;13.064;2022-07-19T11:20:26;40.60;25.70
19090;DHT22;9677;50.656;13.064;2022-07-19T11:22:57;40.70;26.10
19090;DHT22;9677;50.656;13.064;2022-07-19T11:25:29;40.80;25.80
19090;DHT22;9677;50.656;13.064;2022-07-19T11:27:59;41.00;26.00
19090;DHT22;9677;50.656;13.064;2022-07-19T11:30:30;41.10;25.60
19090;DHT22;9677;50.656;13.064;2022-07-19T11:33:02;41.30;25.70
19090;DHT22;9677;50.656;13.064;2022-07-19T11:35:33;41.40;25.50
19090;DHT22;9677;50.656;13.064;2022-07-19T11:38:01;41.50;25.30
19090;DHT22;9677;50.656;13.064;2022-07-19T11:40:34;41.60;25.10
19090;DHT22;9677;50.656;13.064;2022-07-19T11:43:05;41.80;24.80
19090;DHT22;9677;50.656;13.064;2022-07-19T11:45:42;41.80;24.80
19090;DHT22;9677;50.656;13.064;2022-07-19T11:48:14;41.90;24.70
19090;DHT22;9677;50.656;13.064;2022-07-19T11:50:59;42.00;24.30
19090;DHT22;9677;50.656;13.064;2022-07-19T11:53:33;42.00;23.50
19090;DHT22;9677;50.656;13.064;2022-07-19T11:56:05;42.10;24.10
19090;DHT22;9677;50.656;13.064;2022-07-19T11:58:34;42.10;24.10
19090;DHT22;9677;50.656;13.064;2022-07-19T12:01:05;42.10;23.90
19090;DHT22;9677;50.656;13.064;2022-07-19T12:03:34;42.10;23.40
19090;DHT22;9677;50.656;13.064;2022-07-19T12:06:06;42.10;23.70
19090;DHT22;9677;50.656;13.064;2022-07-19T12:08:39;42.10;23.10
19090;DHT22;9677;50.656;13.064;2022-07-19T12:11:20;42.10;22.80
19090;DHT22;9677;50.656;13.064;2022-07-19T12:13:50;42.00;22.90
19090;DHT22;9677;50.656;13.064;2022-07-19T12:16:21;42.10;23.40
19090;DHT22;9677;50.656;13.064;2022-07-19T12:18:52;42.10;23.70
19090;DHT22;9677;50.656;13.064;2022-07-19T12:21:27;42.20;23.60
19090;DHT22;9677;50.656;13.064;2022-07-19T12:24:17;42.30;22.90
19090;DHT22;9677;50.656;13.064;2022-07-19T12:27:02;42.40;23.00
19090;DHT22;9677;50.656;13.064;2022-07-19T12:29:33;42.50;22.80
19090;DHT22;9677;50.656;13.064;2022-07-19T12:32:05;42.50;23.00
19090;DHT22;9677;50.656;13.064;2022-07-19T12:34:44;42.60;23.00
19090;DHT22;9677;50.656;13.064;2022-07-19T12:37:25;42.60;22.50
19090;DHT22;9677;50.656;13.064;2022-07-19T12:40:00;42.60;22.00
19090;DHT22;9677;50.656;13.064;2022-07-19T12:42:38;42.60;22.20
19090;DHT22;9677;50.656;13.064;2022-07-19T12:45:09;42.60;22.30
19090;DHT22;9677;50.656;13.064;2022-07-19T12:47:39;42.70;22.60
19090;DHT22;9677;50.656;13.064;2022-07-19T12:50:09;42.70;22.60
19090;DHT22;9677;50.656;13.064;2022-07-19T12:52:48;42.70;22.50
19090;DHT22;9677;50.656;13.064;2022-07-19T12:55:17;42.70;22.40
19090;DHT22;9677;50.656;13.064;2022-07-19T12:57:46;42.70;22.40
19090;DHT22;9677;50.656;13.064;2022-07-19T13:00:15;42.70;22.30
19090;DHT22;9677;50.656;13.064;2022-07-19T13:02:45;42.80;22.30
19090;DHT22;9677;50.656;13.064;2022-07-19T13:05:15;42.80;22.00
19090;DHT22;9677;50.656;13.064;2022-07-19T13:07:44;42.80;22.10
19090;DHT22;9677;50.656;13.064;2022-07-19T13:10:14;42.80;22.00
19090;DHT22;9677;50.656;13.064;2022-07-19T13:12:43;42.80;21.80
19090;DHT22;9677;50.656;13.064;2022-07-19T13:15:12;42.80;21.70
19090;DHT22;9677;50.656;13.064;2022-07-19T13:17:43;42.80;21.70
19090;DHT22;9677;50.656;13.064;2022-07-19T13:20:13;42.80;21.80
19090;DHT22;9677;50.656;13.064;2022-07-19T13:22:42;42.80;21.80
19090;DHT22;9677;50.656;13.064;2022-07-19T13:25:11;42.80;21.70
19090;DHT22;9677;50.656;13.064;2022-07-19T13:28:01;42.80;21.80
19090;DHT22;9677;50.656;13.064;2022-07-19T13:30:30;42.90;21.70
19090;DHT22;9677;50.656;13.064;2022-07-19T13:32:59;42.90;21.50
19090;DHT22;9677;50.656;13.064;2022-07-19T13:35:27;42.90;21.40
19090;DHT22;9677;50.656;13.064;2022-07-19T13:37:57;42.90;21.40
19090;DHT22;9677;50.656;13.064;2022-07-19T13:40:27;42.90;21.40
19090;DHT22;9677;50.656;13.064;2022-07-19T13:42:55;42.90;21.40
19090;DHT22;9677;50.656;13.064;2022-07-19T13:45:25;42.90;21.40
19090;DHT22;9677;50.656;13.064;2022-07-19T13:47:53;42.90;21.20
19090;DHT22;9677;50.656;13.064;2022-07-19T13:50:27;42.90;21.20
19090;DHT22;9677;50.656;13.064;2022-07-19T13:52:57;42.90;21.20
19090;DHT22;9677;50.656;13.064;2022-07-19T13:55:27;42.90;21.10
19090;DHT22;9677;50.656;13.064;2022-07-19T13:57:55;42.80;21.10
19090;DHT22;9677;50.656;13.064;2022-07-19T14:00:25;42.80;20.80
19090;DHT22;9677;50.656;13.064;2022-07-19T14:02:53;42.80;20.80
19090;DHT22;9677;50.656;13.064;2022-07-19T14:05:22;42.80;20.90
19090;DHT22;9677;50.656;13.064;2022-07-19T14:07:51;42.70;20.80
19090;DHT22;9677;50.656;13.064;2022-07-19T14:10:19;42.70;20.70
19090;DHT22;9677;50.656;13.064;2022-07-19T14:12:48;42.60;20.70
19090;DHT22;9677;50.656;13.064;2022-07-19T14:15:38;42.60;20.60
19090;DHT22;9677;50.656;13.064;2022-07-19T14:18:06;42.50;20.50
19090;DHT22;9677;50.656;13.064;2022-07-19T14:20:35;42.50;20.70
19090;DHT22;9677;50.656;13.064;2022-07-19T14:23:03;42.40;20.50
19090;DHT22;9677;50.656;13.064;2022-07-19T14:25:32;42.30;20.30
19090;DHT22;9677;50.656;13.064;2022-07-19T14:28:00;42.30;20.30
19090;DHT22;9677;50.656;13.064;2022-07-19T14:30:29;42.20;20.50
19090;DHT22;9677;50.656;13.064;2022-07-19T14:32:59;42.20;20.50
19090;DHT22;9677;50.656;13.064;2022-07-19T14:35:28;42.10;20.50
19090;DHT22;9677;50.656;13.064;2022-07-19T14:37:56;42.10;20.50
19090;DHT22;9677;50.656;13.064;2022-07-19T14:40:25;42.00;20.50
19090;DHT22;9677;50.656;13.064;2022-07-19T14:42:53;42.00;20.50
19090;DHT22;9677;50.656;13.064;2022-07-19T14:45:22;41.90;20.50
19090;DHT22;9677;50.656;13.064;2022-07-19T14:47:50;41.90;20.50
19090;DHT22;9677;50.656;13.064;2022-07-19T14:50:22;41.80;20.40
19090;DHT22;9677;50.656;13.064;2022-07-19T14:52:51;41.80;20.40
19090;DHT22;9677;50.656;13.064;2022-07-19T14:55:19;41.80;20.40
19090;DHT22;9677;50.656;13.064;2022-07-19T14:57:48;41.70;20.40
19090;DHT22;9677;50.656;13.064;2022-07-19T15:00:16;41.60;20.30
19090;DHT22;9677;50.656;13.064;2022-07-19T15:02:45;41.50;20.50
19090;DHT22;9677;50.656;13.064;2022-07-19T15:05:13;41.50;20.60
19090;DHT22;9677;50.656;13.064;2022-07-19T15:07:43;41.40;20.40
19090;DHT22;9677;50.656;13.064;2022-07-19T15:10:12;41.40;20.30
19090;DHT22;9677;50.656;13.064;2022-07-19T15:12:40;41.40;20.50
19090;DHT22;9677;50.656;13.064;2022-07-19T15:15:09;41.30;20.50
19090;DHT22;9677;50.656;13.064;2022-07-19T15:17:37;41.30;20.50
19090;DHT22;9677;50.656;13.064;2022-07-19T15:20:07;41.30;20.70
19090;DHT22;9677;50.656;13.064;2022-07-19T15:22:36;41.20;20.60
19090;DHT22;9677;50.656;13.064;2022-07-19T15:25:07;41.20;20.60
19090;DHT22;9677;50.656;13.064;2022-07-19T15:27:36;41.10;20.50
19090;DHT22;9677;50.656;13.064;2022-07-19T15:30:07;41.10;20.80
19090;DHT22;9677;50.656;13.064;2022-07-19T15:32:36;41.10;20.70
19090;DHT22;9677;50.656;13.064;2022-07-19T15:35:05;41.10;20.60
19090;DHT22;9677;50.656;13.064;2022-07-19T15:37:40;41.00;20.50
19090;DHT22;9677;50.656;13.064;2022-07-19T15:40:10;41.00;20.50
19090;DHT22;9677;50.656;13.064;2022-07-19T15:42:43;41.00;20.60
19090;DHT22;9677;50.656;13.064;2022-07-19T15:45:13;40.90;20.50
19090;DHT22;9677;50.656;13.064;2022-07-19T15:47:43;40.90;20.60
19090;DHT22;9677;50.656;13.064;2022-07-19T15:50:13;40.90;20.60
19090;DHT22;9677;50.656;13.064;2022-07-19T15:52:42;40.80;20.50